Portada
METAR-TAF:

METAR-TAF

Aeroports :

Txità, Rússia

latitud: 52-05N, longitud: 113-29E, altitud: 685 m

Observació

L'informe es va fer fa 30 minuts, a les 09:30 UTC
Vent 8 kt del Est
Temperatura -3°C
Humitat 36%
Pressió 1024 hPa
Visibilitat 10 km o més

METAR: UIAA 260930Z 10004MPS 9999 NSC M03/M16 Q1024 R29/410160 NOSIG RMK QFE709/0945

Hora: 19:00 (10:00 UTC)

Pronòstic

L'informe es va fer fa 2 hores i 0 minuts, a les 08:00 UTC
Pronòstic vàlid del 26 a les 09 UTC al 27 a les 09 UTC
Vent 6 kt del Est amb ràfegues de 17 kt
Visibilitat 10 km o més
Núvols disperses a una alçada de 4000 ft, Cumulonimbus.
Temporalment
l' 26 a les 15 UTC al 27 a les 09 UTC
Visibilitat: 3100 m
Cel ennuvolat a una alçada de 1400 ft, Cumulonimbus.
xàfecs de neu, boirina

TAF: UIAA 260800Z 2609/2709 10003G09MPS 9999 SCT040CB TEMPO 2615/2709 3100 -SHSN BR BKN014CB

Observacions i pronòstics meteorològics de més de 4000 aeroports (METAR i TAF).

Les estacions disponibles són els punts grocs i vermells al mapa.

Posi el ratolí al punt desitjat per veure el nom de l'estació.

Feu clic per veure les observacions i els pronòstics meteorològics.

Per canviar el mapa: feu clic els botons verds amb una creu de color negre per apropar; al botó verd amb un guió per allunyar la imatge; o en les fletxes verdes per a mapes adjacents.


METAR-TAF: